Statsraad Lehmkuhl — LDRG — position and weather

sailwx.info

Track history (hours):
 
Tides and Currents Weather Stations Pressure Air Temp Water Temp Dewpoint Dewpoint Depression Visibility Wind Speed Wind Dir Waves Ship Positions

Statsraad Lehmkuhl (Norway)

Ship's website: http://www.lehmkuhl.no/eng/index.cfm

Last reported at 2018-Jun-20 20:00 UTC. Time now 2018-Jun-20 20:22 UTC.
Position N 60°24' E 005°19'.

Length 85 m; draft 5.2 m.

Type: Sailing vessel. MMSI: 258113000.

Date/timePositionNaut miles runAvg speedWind from/ knotsBaromVisibWave heightAir tempDewpointWater temp
2018-Jun-20 20:00N 60°24' E 005°19'1 1.3
2018-Jun-20 19:30N 60°24' E 005°18'2 3.3
2018-Jun-20 19:00N 60°24' E 005°15'2 3.6
2018-Jun-20 18:30N 60°23' E 005°12'2 4.8
2018-Jun-20 18:00N 60°24' E 005°07'2 3.9
2018-Jun-20 17:30N 60°26' E 005°05'2 4.4
2018-Jun-20 16:58N 60°24' E 005°09'2 3.7
2018-Jun-20 16:30N 60°23' E 005°12'3 5.5
2018-Jun-20 16:00N 60°24' E 005°17'1 2.4
2018-Jun-20 15:31N 60°24' E 005°19'0 0.0
2018-Jun-20 15:00N 60°24' E 005°19'0 0.0
2018-Jun-20 14:30N 60°24' E 005°19'0 0.0
2018-Jun-20 14:00N 60°24' E 005°19'0 0.0
2018-Jun-20 13:31N 60°24' E 005°19'0 0.0
2018-Jun-20 13:00N 60°24' E 005°19'0 0.0
2018-Jun-20 12:30N 60°24' E 005°19'0 0.0
2018-Jun-20 12:00N 60°24' E 005°19'0 0.0
2018-Jun-20 11:29N 60°24' E 005°19'0 0.0
2018-Jun-20 11:00N 60°24' E 005°19'0 0.0
2018-Jun-20 10:30N 60°24' E 005°19'0 0.0
2018-Jun-20 10:00N 60°24' E 005°19'0 0.0
2018-Jun-20 09:30N 60°24' E 005°19'0 0.0
2018-Jun-20 09:00N 60°24' E 005°19'0 0.0
2018-Jun-20 08:30N 60°24' E 005°19'0 0.0
2018-Jun-20 08:00N 60°24' E 005°19'0 0.0
2018-Jun-20 07:30N 60°24' E 005°19'0 0.0
2018-Jun-20 07:00N 60°24' E 005°19'0 0.0
2018-Jun-20 06:30N 60°24' E 005°19'0 0.0
2018-Jun-20 06:00N 60°24' E 005°19'0 0.0
2018-Jun-20 05:30N 60°24' E 005°19'0 0.0
2018-Jun-20 04:59N 60°24' E 005°19'0 0.0
2018-Jun-20 04:30N 60°24' E 005°19'0 0.0
2018-Jun-20 04:00N 60°24' E 005°19'0 0.0
2018-Jun-20 03:30N 60°24' E 005°19'0 0.0
2018-Jun-20 03:00N 60°24' E 005°19'0 0.0
2018-Jun-20 02:29N 60°24' E 005°19'0 0.0
2018-Jun-20 02:01N 60°24' E 005°19'0 0.0
2018-Jun-20 01:30N 60°24' E 005°19'0 0.0
2018-Jun-20 01:00N 60°24' E 005°19'0 0.0
2018-Jun-20 00:30N 60°24' E 005°19'0 0.0
2018-Jun-20 00:00N 60°24' E 005°19'0 0.0
2018-Jun-19 23:30N 60°24' E 005°19'0 0.0
2018-Jun-19 23:00N 60°24' E 005°19'0 0.0
2018-Jun-19 22:30N 60°24' E 005°19'0 0.0
2018-Jun-19 22:00N 60°24' E 005°19'0 0.0
2018-Jun-19 21:30N 60°24' E 005°19'0 0.0
2018-Jun-19 21:00N 60°24' E 005°19'0 0.0
2018-Jun-19 20:30N 60°24' E 005°19'0 0.0
2018-Jun-19 20:00N 60°24' E 005°19'0 0.0
2018-Jun-19 19:30N 60°24' E 005°19'0 0.0
2018-Jun-19 19:00N 60°24' E 005°19'1 1.1
2018-Jun-19 18:30N 60°24' E 005°18'2 4.5
2018-Jun-19 18:00N 60°26' E 005°15'2 4.6
2018-Jun-19 17:30N 60°28' E 005°15'2 4.2
2018-Jun-19 17:00N 60°26' E 005°16'2 3.9
2018-Jun-19 16:30N 60°24' E 005°18'1 1.5
2018-Jun-19 16:00N 60°24' E 005°19'0 0.0
2018-Jun-19 15:30N 60°24' E 005°19'0 0.0
2018-Jun-19 14:58N 60°24' E 005°19'0 0.0
2018-Jun-19 14:28N 60°24' E 005°19'0 0.0
2018-Jun-19 13:59N 60°24' E 005°19'0 0.0
2018-Jun-19 13:29N 60°24' E 005°19'0 0.0
2018-Jun-19 12:59N 60°24' E 005°19'0 0.0
2018-Jun-19 12:30N 60°24' E 005°19'0 0.0
2018-Jun-19 11:57N 60°24' E 005°19'0 0.0
2018-Jun-19 11:30N 60°24' E 005°19'0 0.0
2018-Jun-19 11:01N 60°24' E 005°19'0 0.0
2018-Jun-19 10:28N 60°24' E 005°19'0 0.0
2018-Jun-19 09:58N 60°24' E 005°19'0 0.0
2018-Jun-19 09:29N 60°24' E 005°19'0 0.0
2018-Jun-19 08:59N 60°24' E 005°19'0 0.0
2018-Jun-19 08:29N 60°24' E 005°19'0 0.0
2018-Jun-19 08:00N 60°24' E 005°19'0 0.0
2018-Jun-19 07:30N 60°24' E 005°19'0 0.0
2018-Jun-19 07:00N 60°24' E 005°19'0 0.0
2018-Jun-19 06:31N 60°24' E 005°19'0 0.0
2018-Jun-19 05:58N 60°24' E 005°19'0 0.0
2018-Jun-19 05:28N 60°24' E 005°19'0 0.0
2018-Jun-19 04:59N 60°24' E 005°19'0 0.0
2018-Jun-19 04:29N 60°24' E 005°19'0 0.0
2018-Jun-19 03:59N 60°24' E 005°19'0 0.0
2018-Jun-19 03:30N 60°24' E 005°19'0 0.0
2018-Jun-19 03:00N 60°24' E 005°19'0 0.0
2018-Jun-19 02:30N 60°24' E 005°19'0 0.0
2018-Jun-19 02:01N 60°24' E 005°19'0 0.0
2018-Jun-19 01:28N 60°24' E 005°19'0 0.0
2018-Jun-19 00:58N 60°24' E 005°19'0 0.0
2018-Jun-19 00:29N 60°24' E 005°19'0 0.0
2018-Jun-18 23:59N 60°24' E 005°19'0 0.0
2018-Jun-18 23:29N 60°24' E 005°19'0 0.0
2018-Jun-18 23:00N 60°24' E 005°19'0 0.0
2018-Jun-18 22:30N 60°24' E 005°19'0 0.0
2018-Jun-18 22:00N 60°24' E 005°19'0 0.0
2018-Jun-18 21:31N 60°24' E 005°19'0 0.0
2018-Jun-18 20:58N 60°24' E 005°19'0 0.0
2018-Jun-18 20:28N 60°24' E 005°19'0 0.0
2018-Jun-18 19:59N 60°24' E 005°19'0 0.0
2018-Jun-18 19:29N 60°24' E 005°19'0 0.0
2018-Jun-18 18:59N 60°24' E 005°19'0 0.0
2018-Jun-18 18:30N 60°24' E 005°19'0 0.0
2018-Jun-18 18:00N 60°24' E 005°19'0 0.0
2018-Jun-18 17:30N 60°24' E 005°19'0 0.0
2018-Jun-18 16:58N 60°24' E 005°19'0 0.0
2018-Jun-18 16:28N 60°24' E 005°19'0 0.0
2018-Jun-18 15:58N 60°24' E 005°19'0 0.0
2018-Jun-18 15:29N 60°24' E 005°19'0 0.0
2018-Jun-18 14:59N 60°24' E 005°19'0 0.0
2018-Jun-18 14:29N 60°24' E 005°19'0 0.0
2018-Jun-18 14:00N 60°24' E 005°19'0 0.0
2018-Jun-18 13:30N 60°24' E 005°19'0 0.0
2018-Jun-18 13:00N 60°24' E 005°19'0 0.0
2018-Jun-18 12:28N 60°24' E 005°19'0 0.0
2018-Jun-18 11:58N 60°24' E 005°19'0 0.0
2018-Jun-18 11:25N 60°24' E 005°19'0 0.0
2018-Jun-18 10:59N 60°24' E 005°19'0 0.0
2018-Jun-18 10:29N 60°24' E 005°19'0 0.0
2018-Jun-18 09:59N 60°24' E 005°19'0 0.0
2018-Jun-18 09:30N 60°24' E 005°19'0 0.0
2018-Jun-18 09:00N 60°24' E 005°19'0 0.0
2018-Jun-18 08:30N 60°24' E 005°19'0 0.0
2018-Jun-18 07:58N 60°24' E 005°19'0 0.0
2018-Jun-18 07:28N 60°24' E 005°19'0 0.0
2018-Jun-18 06:58N 60°24' E 005°19'0 0.0
2018-Jun-18 06:29N 60°24' E 005°19'0 0.0
2018-Jun-18 05:59N 60°24' E 005°19'0 0.0
2018-Jun-18 05:29N 60°24' E 005°19'0 0.0
2018-Jun-18 05:00N 60°24' E 005°19'0 0.0
2018-Jun-18 04:30N 60°24' E 005°19'0 0.0
2018-Jun-18 04:00N 60°24' E 005°19'0 0.0
2018-Jun-18 03:28N 60°24' E 005°19'0 0.0
2018-Jun-18 02:58N 60°24' E 005°19'0 0.0
2018-Jun-18 02:28N 60°24' E 005°19'0 0.0
2018-Jun-18 01:59N 60°24' E 005°19'0 0.0
2018-Jun-18 01:29N 60°24' E 005°19'0 0.0
2018-Jun-18 00:59N 60°24' E 005°19'0 0.0
2018-Jun-18 00:30N 60°24' E 005°19'0 0.0
2018-Jun-18 00:00N 60°24' E 005°19'0 0.0
2018-Jun-17 23:30N 60°24' E 005°19'0 0.0
2018-Jun-17 22:58N 60°24' E 005°19'0 0.0
2018-Jun-17 22:30N 60°24' E 005°19'2 3.7
2018-Jun-17 22:00N 60°24' E 005°15'4 8.9
2018-Jun-17 21:31N 60°20' E 005°11'510.3
2018-Jun-17 21:00N 60°15' E 005°09'510.5
2018-Jun-17 20:30N 60°11' E 005°15'5 9.9
2018-Jun-17 20:00N 60°07' E 005°23'4 8.6
2018-Jun-17 19:30N 60°10' E 005°29'1 2.0
2018-Jun-17 19:00N 60°11' E 005°29'1 2.6
2018-Jun-17 18:30N 60°10' E 005°31'3 6.5
2018-Jun-17 18:00N 60°13' E 005°35'1 1.6
2018-Jun-17 17:30N 60°12' E 005°34'3 5.2
2018-Jun-17 17:00N 60°11' E 005°30'0 0.3
2018-Jun-17 16:30N 60°11' E 005°29'0 0.0
2018-Jun-17 16:00N 60°11' E 005°29'0 0.0
2018-Jun-17 15:29N 60°11' E 005°29'0 0.0
2018-Jun-17 15:00N 60°11' E 005°29'0 0.0
2018-Jun-17 14:30N 60°11' E 005°29'2 2.9
2018-Jun-17 14:00N 60°10' E 005°29'4 7.6
2018-Jun-17 13:29N 60°07' E 005°23'4 8.8
2018-Jun-17 13:00N 60°10' E 005°16'4 8.8
2018-Jun-17 12:30N 60°13' E 005°10'4 7.6
2018-Jun-17 12:00N 60°17' E 005°11'4 7.8
2018-Jun-17 11:30N 60°21' E 005°10'4 7.1
2018-Jun-17 11:00N 60°24' E 005°13'3 5.2
2018-Jun-17 10:28N 60°24' E 005°19'0 0.0
2018-Jun-17 09:58N 60°24' E 005°19'0 0.0
2018-Jun-17 09:28N 60°24' E 005°19'0 0.0
2018-Jun-17 08:59N 60°24' E 005°19'0 0.0
2018-Jun-17 08:29N 60°24' E 005°19'0 0.0
2018-Jun-17 07:59N 60°24' E 005°19'0 0.0
2018-Jun-17 07:30N 60°24' E 005°19'0 0.0
2018-Jun-17 07:00N 60°24' E 005°19'0 0.0
2018-Jun-17 06:30N 60°24' E 005°19'0 0.0
2018-Jun-17 05:58N 60°24' E 005°19'0 0.0
2018-Jun-17 05:28N 60°24' E 005°19'0 0.0
2018-Jun-17 04:58N 60°24' E 005°19'0 0.0
2018-Jun-17 04:29N 60°24' E 005°19'0 0.0
2018-Jun-17 03:59N 60°24' E 005°19'0 0.0
2018-Jun-17 03:29N 60°24' E 005°19'0 0.0
2018-Jun-17 02:57N 60°24' E 005°19'0 0.0
2018-Jun-17 02:30N 60°24' E 005°19'0 0.0
2018-Jun-17 02:00N 60°24' E 005°19'0 0.0
2018-Jun-17 01:28N 60°24' E 005°19'0 0.0
2018-Jun-17 00:58N 60°24' E 005°19'0 0.0
2018-Jun-17 00:28N 60°24' E 005°19'0 0.0
2018-Jun-16 23:59N 60°24' E 005°19'0 0.0
2018-Jun-16 23:29N 60°24' E 005°19'0 0.0
2018-Jun-16 22:59N 60°24' E 005°19'0 0.0
2018-Jun-16 22:30N 60°24' E 005°19'0 0.0
2018-Jun-16 22:00N 60°24' E 005°19'0 0.0
2018-Jun-16 21:30N 60°24' E 005°19'0 0.0
2018-Jun-16 20:58N 60°24' E 005°19'0 0.0
2018-Jun-16 20:28N 60°24' E 005°19'0 0.0
2018-Jun-16 20:00N 60°24' E 005°19'1 1.4
2018-Jun-16 19:30N 60°24' E 005°18'2 3.8
2018-Jun-16 19:00N 60°24' E 005°14'2 4.6
2018-Jun-16 18:30N 60°23' E 005°09'2 4.5
2018-Jun-16 18:00N 60°24' E 005°06'1 2.3
2018-Jun-16 17:29N 60°26' E 005°05'2 4.1
2018-Jun-16 17:00N 60°25' E 005°09'2 4.2
2018-Jun-16 16:30N 60°24' E 005°13'2 4.8
2018-Jun-16 16:00N 60°24' E 005°17'1 2.1
2018-Jun-16 15:30N 60°24' E 005°19'0 0.0
2018-Jun-16 15:00N 60°24' E 005°19'0 0.0
2018-Jun-16 14:30N 60°24' E 005°19'0 0.0
2018-Jun-16 14:00N 60°24' E 005°19'0 0.0
2018-Jun-16 13:30N 60°24' E 005°19'0 0.0
2018-Jun-16 13:00N 60°24' E 005°19'0 0.0
2018-Jun-16 12:30N 60°24' E 005°19'0 0.0
2018-Jun-16 12:00N 60°24' E 005°19'0 0.0
2018-Jun-16 11:30N 60°24' E 005°19'0 0.0
2018-Jun-16 11:00N 60°24' E 005°19'0 0.0
2018-Jun-16 10:30N 60°24' E 005°19'0 0.0
2018-Jun-16 10:00N 60°24' E 005°19'0 0.0
2018-Jun-16 09:30N 60°24' E 005°19'0 0.0
2018-Jun-16 09:00N 60°24' E 005°19'0 0.0
2018-Jun-16 08:30N 60°24' E 005°19'0 0.0
2018-Jun-16 08:00N 60°24' E 005°19'0 0.0
2018-Jun-16 07:30N 60°24' E 005°19'0 0.0
2018-Jun-16 07:00N 60°24' E 005°19'0 0.0
2018-Jun-16 06:30N 60°24' E 005°19'0 0.0
2018-Jun-16 06:00N 60°24' E 005°19'0 0.0
2018-Jun-16 05:30N 60°24' E 005°19'0 0.0
2018-Jun-16 05:00N 60°24' E 005°19'0 0.0
2018-Jun-16 04:30N 60°24' E 005°19'0 0.0
2018-Jun-16 04:00N 60°24' E 005°19'0 0.0
2018-Jun-16 03:30N 60°24' E 005°19'0 0.0
2018-Jun-16 03:00N 60°24' E 005°19'0 0.0
2018-Jun-16 02:30N 60°24' E 005°19'0 0.0
2018-Jun-16 02:00N 60°24' E 005°19'0 0.0
2018-Jun-16 01:30N 60°24' E 005°19'0 0.0
2018-Jun-16 01:00N 60°24' E 005°19'0 0.0
2018-Jun-16 00:30N 60°24' E 005°19'0 0.0
2018-Jun-16 00:00N 60°24' E 005°19'0 0.0
2018-Jun-15 23:30N 60°24' E 005°19'0 0.0
2018-Jun-15 23:00N 60°24' E 005°19'0 0.0
2018-Jun-15 22:30N 60°24' E 005°19'0 0.0
2018-Jun-15 21:59N 60°24' E 005°19'0 0.0
2018-Jun-15 21:30N 60°24' E 005°19'0 0.0
2018-Jun-15 21:00N 60°24' E 005°19'0 0.0
2018-Jun-15 20:29N 60°24' E 005°19'0 0.0
2018-Jun-15 19:59N 60°24' E 005°19'0 1.0
2018-Jun-15 19:30N 60°24' E 005°18'2 3.2
2018-Jun-15 19:00N 60°24' E 005°15'2 3.7
2018-Jun-15 18:30N 60°23' E 005°12'2 3.9
2018-Jun-15 18:00N 60°24' E 005°08'3 5.1
2018-Jun-15 17:29N 60°25' E 005°03'2 5.1
2018-Jun-15 17:00N 60°25' E 005°08'3 5.5
2018-Jun-15 16:30N 60°24' E 005°12'3 5.4
2018-Jun-15 16:00N 60°24' E 005°18'1 1.7
2018-Jun-15 15:30N 60°24' E 005°19'0 0.0
2018-Jun-15 14:58N 60°24' E 005°19'0 0.0
2018-Jun-15 14:28N 60°24' E 005°19'0 0.0
2018-Jun-15 13:58N 60°24' E 005°19'0 0.0
2018-Jun-15 13:29N 60°24' E 005°19'0 0.0
2018-Jun-15 12:59N 60°24' E 005°19'0 0.0
2018-Jun-15 12:29N 60°24' E 005°19'0 0.0
2018-Jun-15 12:00N 60°24' E 005°19'0 0.0
2018-Jun-15 11:30N 60°24' E 005°19'0 0.0
2018-Jun-15 11:00N 60°24' E 005°19'0 0.0
2018-Jun-15 10:28N 60°24' E 005°19'0 0.0
2018-Jun-15 09:58N 60°24' E 005°19'0 0.0
2018-Jun-15 09:28N 60°24' E 005°19'0 0.0
2018-Jun-15 08:59N 60°24' E 005°19'0 0.0
2018-Jun-15 08:29N 60°24' E 005°19'0 0.0
2018-Jun-15 07:59N 60°24' E 005°19'0 0.0
2018-Jun-15 07:30N 60°24' E 005°19'0 0.0
2018-Jun-15 07:00N 60°24' E 005°19'0 0.0
2018-Jun-15 06:30N 60°24' E 005°19'0 0.0
2018-Jun-15 05:58N 60°24' E 005°19'0 0.0
2018-Jun-15 05:28N 60°24' E 005°19'0 0.0
2018-Jun-15 04:58N 60°24' E 005°19'0 0.0
2018-Jun-15 04:29N 60°24' E 005°19'0 0.0
2018-Jun-15 03:59N 60°24' E 005°19'0 0.0
2018-Jun-15 03:29N 60°24' E 005°19'0 0.0
2018-Jun-15 03:00N 60°24' E 005°19'0 0.0
2018-Jun-15 02:30N 60°24' E 005°19'0 0.0
2018-Jun-15 02:00N 60°24' E 005°19'0 0.0
2018-Jun-15 01:28N 60°24' E 005°19'0 0.0
2018-Jun-15 00:58N 60°24' E 005°19'0 0.0
2018-Jun-15 00:28N 60°24' E 005°19'0 0.0
2018-Jun-14 23:59N 60°24' E 005°19'0 0.0
2018-Jun-14 23:29N 60°24' E 005°19'0 0.0
2018-Jun-14 22:59N 60°24' E 005°19'0 0.0
2018-Jun-14 22:30N 60°24' E 005°19'0 0.0
2018-Jun-14 22:00N 60°24' E 005°19'0 0.0
2018-Jun-14 21:30N 60°24' E 005°19'0 0.0
2018-Jun-14 20:58N 60°24' E 005°19'0 0.0
2018-Jun-14 20:28N 60°24' E 005°19'0 0.0
2018-Jun-14 19:59N 60°24' E 005°19'0 0.0
2018-Jun-14 19:29N 60°24' E 005°19'0 0.0
2018-Jun-14 18:59N 60°24' E 005°19'0 0.0
2018-Jun-14 18:30N 60°24' E 005°19'0 0.0
2018-Jun-14 18:00N 60°24' E 005°19'0 0.0
2018-Jun-14 17:30N 60°24' E 005°19'0 0.0
2018-Jun-14 17:01N 60°24' E 005°19'0 0.0
2018-Jun-14 16:28N 60°24' E 005°19'0 0.0
2018-Jun-14 15:58N 60°24' E 005°19'0 0.0
2018-Jun-14 15:29N 60°24' E 005°19'0 0.0
2018-Jun-14 14:59N 60°24' E 005°19'0 0.0
2018-Jun-14 14:29N 60°24' E 005°19'0 0.0
2018-Jun-14 13:59N 60°24' E 005°19'0 0.0
2018-Jun-14 13:30N 60°24' E 005°19'0 0.0
2018-Jun-14 13:00N 60°24' E 005°19'0 0.0
2018-Jun-14 12:30N 60°24' E 005°19'0 0.0
2018-Jun-14 11:58N 60°24' E 005°19'0 0.0
2018-Jun-14 11:28N 60°24' E 005°19'0 0.0
2018-Jun-14 10:59N 60°24' E 005°19'0 0.0
2018-Jun-14 10:29N 60°24' E 005°19'0 0.0
2018-Jun-14 09:56N 60°24' E 005°19'0 0.0
2018-Jun-14 09:30N 60°24' E 005°19'0 0.0
2018-Jun-14 09:00N 60°24' E 005°19'0 0.0
2018-Jun-14 08:30N 60°24' E 005°19'0 0.0
2018-Jun-14 08:01N 60°24' E 005°19'0 0.0
2018-Jun-14 07:28N 60°24' E 005°19'0 0.0
2018-Jun-14 06:58N 60°24' E 005°19'0 0.0
2018-Jun-14 06:29N 60°24' E 005°19'0 0.0
2018-Jun-14 05:59N 60°24' E 005°19'0 0.0
2018-Jun-14 05:29N 60°24' E 005°19'0 0.0
2018-Jun-14 05:00N 60°24' E 005°19'0 0.0
2018-Jun-14 04:30N 60°24' E 005°19'0 0.0
2018-Jun-14 04:00N 60°24' E 005°19'0 0.0
2018-Jun-14 03:31N 60°24' E 005°19'0 0.0
2018-Jun-14 02:58N 60°24' E 005°19'0 0.0
2018-Jun-14 02:28N 60°24' E 005°19'0 0.0
2018-Jun-14 01:59N 60°24' E 005°19'0 0.0
2018-Jun-14 01:29N 60°24' E 005°19'0 0.0
2018-Jun-14 00:59N 60°24' E 005°19'0 0.0
2018-Jun-14 00:27N 60°24' E 005°19'0 0.0
2018-Jun-14 00:00N 60°24' E 005°19'0 0.0
2018-Jun-13 23:30N 60°24' E 005°19'0 0.0
2018-Jun-13 23:01N 60°24' E 005°19'0 0.0
2018-Jun-13 22:28N 60°24' E 005°19'0 0.0
2018-Jun-13 21:58N 60°24' E 005°19'0 0.0
2018-Jun-13 21:29N 60°24' E 005°19'0 0.0
2018-Jun-13 20:59N 60°24' E 005°19'0 0.0
2018-Jun-13 20:29N 60°24' E 005°19'0 0.0
2018-Jun-13 19:59N 60°24' E 005°19'1 1.5
2018-Jun-13 19:30N 60°24' E 005°18'2 4.2
2018-Jun-13 19:01N 60°24' E 005°14'2 4.7
2018-Jun-13 18:31N 60°24' E 005°09'2 4.9
2018-Jun-13 18:00N 60°25' E 005°05'2 3.3
2018-Jun-13 17:30N 60°26' E 005°07'2 4.8
2018-Jun-13 17:00N 60°24' E 005°09'1 3.0
2018-Jun-13 16:30N 60°24' E 005°12'3 5.5
2018-Jun-13 16:00N 60°24' E 005°18'1 1.2
2018-Jun-13 15:28N 60°24' E 005°19'0 0.0
2018-Jun-13 14:58N 60°24' E 005°19'0 0.0
2018-Jun-13 14:29N 60°24' E 005°19'0 0.0
2018-Jun-13 13:59N 60°24' E 005°19'0 0.0
2018-Jun-13 13:29N 60°24' E 005°19'0 0.0
2018-Jun-13 13:00N 60°24' E 005°19'0 0.0
2018-Jun-13 12:30N 60°24' E 005°19'0 0.0
2018-Jun-13 12:00N 60°24' E 005°19'0 0.0
2018-Jun-13 11:28N 60°24' E 005°19'0 0.0
2018-Jun-13 10:58N 60°24' E 005°19'0 0.0
2018-Jun-13 10:26N 60°24' E 005°19'0 0.0
2018-Jun-13 09:59N 60°24' E 005°19'0 0.0
2018-Jun-13 09:29N 60°24' E 005°19'0 0.0
2018-Jun-13 09:00N 60°24' E 005°19'0 0.0
2018-Jun-13 08:30N 60°24' E 005°19'0 0.0
2018-Jun-13 08:00N 60°24' E 005°19'0 0.0
2018-Jun-13 07:30N 60°24' E 005°19'0 0.0
2018-Jun-13 06:58N 60°24' E 005°19'0 0.0
2018-Jun-13 06:28N 60°24' E 005°19'0 0.0
2018-Jun-13 05:59N 60°24' E 005°19'0 0.0
2018-Jun-13 05:29N 60°24' E 005°19'0 0.0
2018-Jun-13 04:59N 60°24' E 005°19'0 0.0
2018-Jun-13 04:30N 60°24' E 005°19'0 0.0
2018-Jun-13 04:00N 60°24' E 005°19'0 0.0
2018-Jun-13 03:30N 60°24' E 005°19'0 0.0
2018-Jun-13 02:58N 60°24' E 005°19'0 0.0
2018-Jun-13 02:28N 60°24' E 005°19'0 0.0
2018-Jun-13 01:58N 60°24' E 005°19'0 0.0
2018-Jun-13 01:29N 60°24' E 005°19'0 0.0
2018-Jun-13 00:59N 60°24' E 005°19'0 0.0
2018-Jun-13 00:29N 60°24' E 005°19'0 0.0
2018-Jun-13 00:00N 60°24' E 005°19'0 0.0
2018-Jun-12 23:30N 60°24' E 005°19'0 0.0
2018-Jun-12 23:00N 60°24' E 005°19'0 0.0
2018-Jun-12 22:28N 60°24' E 005°19'0 0.0
2018-Jun-12 21:58N 60°24' E 005°19'0 0.0
2018-Jun-12 21:28N 60°24' E 005°19'0 0.0
2018-Jun-12 20:59N 60°24' E 005°19'0 0.0
2018-Jun-12 20:29N 60°24' E 005°19'0 0.0
2018-Jun-12 20:00N 60°24' E 005°19'1 1.7
2018-Jun-12 19:30N 60°24' E 005°17'2 4.0
2018-Jun-12 19:00N 60°24' E 005°14'1 2.7
2018-Jun-12 18:30N 60°23' E 005°11'2 3.8
2018-Jun-12 18:00N 60°24' E 005°08'2 4.9
2018-Jun-12 17:30N 60°25' E 005°04'2 5.0
2018-Jun-12 17:00N 60°25' E 005°08'2 4.4
2018-Jun-12 16:30N 60°24' E 005°12'3 5.4
2018-Jun-12 16:00N 60°24' E 005°17'1 1.9
2018-Jun-12 15:30N 60°24' E 005°19'0 0.0
2018-Jun-12 14:58N 60°24' E 005°19'0 0.0
2018-Jun-12 14:28N 60°24' E 005°19'0 0.0
2018-Jun-12 13:58N 60°24' E 005°19'0 0.0
2018-Jun-12 13:29N 60°24' E 005°19'0 0.0
2018-Jun-12 12:59N 60°24' E 005°19'0 0.0
2018-Jun-12 12:29N 60°24' E 005°19'0 0.0
2018-Jun-12 12:00N 60°24' E 005°19'0 0.0
2018-Jun-12 11:30N 60°24' E 005°19'0 0.0
2018-Jun-12 11:00N 60°24' E 005°19'0 0.0
2018-Jun-12 10:28N 60°24' E 005°19'0 0.0
2018-Jun-12 09:58N 60°24' E 005°19'0 0.0
2018-Jun-12 09:28N 60°24' E 005°19'0 0.0
2018-Jun-12 08:59N 60°24' E 005°19'0 0.0
2018-Jun-12 08:29N 60°24' E 005°19'0 0.0
2018-Jun-12 07:59N 60°24' E 005°19'0 0.0
2018-Jun-12 07:30N 60°24' E 005°19'0 0.0
2018-Jun-12 07:00N 60°24' E 005°19'0 0.0
2018-Jun-12 06:30N 60°24' E 005°19'0 0.0
2018-Jun-12 05:55N 60°24' E 005°19'0 0.0
2018-Jun-12 05:28N 60°24' E 005°19'0 0.0
2018-Jun-12 04:58N 60°24' E 005°19'0 0.0
2018-Jun-12 04:29N 60°24' E 005°19'0 0.0
2018-Jun-12 03:59N 60°24' E 005°19'0 0.0
2018-Jun-12 03:29N 60°24' E 005°19'0 0.0
2018-Jun-12 03:00N 60°24' E 005°19'0 0.0
2018-Jun-12 02:30N 60°24' E 005°19'0 0.0
2018-Jun-12 02:00N 60°24' E 005°19'0 0.0
2018-Jun-12 01:28N 60°24' E 005°19'0 0.0
2018-Jun-12 00:58N 60°24' E 005°19'0 0.0
2018-Jun-12 00:28N 60°24' E 005°19'0 0.0
2018-Jun-11 23:59N 60°24' E 005°19'0 0.0
2018-Jun-11 23:29N 60°24' E 005°19'0 0.0
2018-Jun-11 22:59N 60°24' E 005°19'0 0.0
2018-Jun-11 22:30N 60°24' E 005°19'0 0.0
2018-Jun-11 22:00N 60°24' E 005°19'0 0.0
2018-Jun-11 21:30N 60°24' E 005°19'0 0.0
2018-Jun-11 20:58N 60°24' E 005°19'0 0.0
2018-Jun-11 20:28N 60°24' E 005°19'0 0.0
2018-Jun-11 19:58N 60°24' E 005°19'0 0.0
2018-Jun-11 19:29N 60°24' E 005°19'0 0.0
2018-Jun-11 18:59N 60°24' E 005°19'0 0.0
2018-Jun-11 18:29N 60°24' E 005°19'0 0.0
2018-Jun-11 18:00N 60°24' E 005°19'0 0.0
2018-Jun-11 17:30N 60°24' E 005°19'0 0.0
2018-Jun-11 17:00N 60°24' E 005°19'0 0.0
2018-Jun-11 16:28N 60°24' E 005°19'0 0.0
2018-Jun-11 15:58N 60°24' E 005°19'0 0.0
2018-Jun-11 15:28N 60°24' E 005°19'0 0.0
2018-Jun-11 14:59N 60°24' E 005°19'0 0.0
2018-Jun-11 14:29N 60°24' E 005°19'0 0.0
2018-Jun-11 13:59N 60°24' E 005°19'0 0.0
2018-Jun-11 13:30N 60°24' E 005°19'0 0.0
2018-Jun-11 13:00N 60°24' E 005°19'0 0.0
2018-Jun-11 12:30N 60°24' E 005°19'0 0.0
2018-Jun-11 11:58N 60°24' E 005°19'0 0.0
2018-Jun-11 11:28N 60°24' E 005°19'0 0.0
2018-Jun-11 10:58N 60°24' E 005°19'0 0.0
2018-Jun-11 10:29N 60°24' E 005°19'0 0.0
2018-Jun-11 09:59N 60°24' E 005°19'0 0.0
2018-Jun-11 09:29N 60°24' E 005°19'0 0.0
2018-Jun-11 09:00N 60°24' E 005°19'0 0.0
2018-Jun-11 08:30N 60°24' E 005°19'0 0.0
2018-Jun-11 08:00N 60°24' E 005°19'0 0.0
2018-Jun-11 07:28N 60°24' E 005°19'0 0.0
2018-Jun-11 06:58N 60°24' E 005°19'0 0.0
2018-Jun-11 06:28N 60°24' E 005°19'0 0.0
2018-Jun-11 05:59N 60°24' E 005°19'0 0.0
2018-Jun-11 05:29N 60°24' E 005°19'0 0.0
2018-Jun-11 04:59N 60°24' E 005°19'0 0.0
2018-Jun-11 04:30N 60°24' E 005°19'0 0.0
2018-Jun-11 04:00N 60°24' E 005°19'0 0.0
2018-Jun-11 03:30N 60°24' E 005°19'0 0.0
2018-Jun-11 02:58N 60°24' E 005°19'0 0.0
2018-Jun-11 02:28N 60°24' E 005°19'0 0.0
2018-Jun-11 01:58N 60°24' E 005°19'0 0.0
2018-Jun-11 01:29N 60°24' E 005°19'0 0.0
2018-Jun-11 00:59N 60°24' E 005°19'0 0.0
2018-Jun-11 00:29N 60°24' E 005°19'0 0.0
2018-Jun-11 00:00N 60°24' E 005°19'0 0.0
2018-Jun-10 23:30N 60°24' E 005°19'0 0.0
2018-Jun-10 23:00N 60°24' E 005°19'0 0.0
2018-Jun-10 22:28N 60°24' E 005°19'0 0.0
2018-Jun-10 21:58N 60°24' E 005°19'0 0.0
2018-Jun-10 21:28N 60°24' E 005°19'0 0.0
2018-Jun-10 20:59N 60°24' E 005°19'0 0.0
2018-Jun-10 20:29N 60°24' E 005°19'  
Track history (hours):
 
Tides and Currents Weather Stations Pressure Air Temp Water Temp Dewpoint Dewpoint Depression Visibility Wind Speed Wind Dir Waves Ship Positions

Statsraad Lehmkuhl (Norway)

Ship's website: http://www.lehmkuhl.no/eng/index.cfm

Last reported at 2018-Jun-20 20:00 UTC. Time now 2018-Jun-20 20:22 UTC.
Position N 60°24' E 005°19'.

Length 85 m; draft 5.2 m.

Type: Sailing vessel. MMSI: 258113000.

Date/timePositionNaut miles runAvg speedWind from/ knotsBaromVisibWave heightAir tempDewpointWater temp
2018-Jun-20 20:00N 60°24' E 005°19'1 1.3
2018-Jun-20 19:30N 60°24' E 005°18'2 3.3
2018-Jun-20 19:00N 60°24' E 005°15'2 3.6
2018-Jun-20 18:30N 60°23' E 005°12'2 4.8
2018-Jun-20 18:00N 60°24' E 005°07'2 3.9
2018-Jun-20 17:30N 60°26' E 005°05'2 4.4
2018-Jun-20 16:58N 60°24' E 005°09'2 3.7
2018-Jun-20 16:30N 60°23' E 005°12'3 5.5
2018-Jun-20 16:00N 60°24' E 005°17'1 2.4
2018-Jun-20 15:31N 60°24' E 005°19'0 0.0
2018-Jun-20 15:00N 60°24' E 005°19'0 0.0
2018-Jun-20 14:30N 60°24' E 005°19'0 0.0
2018-Jun-20 14:00N 60°24' E 005°19'0 0.0
2018-Jun-20 13:31N 60°24' E 005°19'0 0.0
2018-Jun-20 13:00N 60°24' E 005°19'0 0.0
2018-Jun-20 12:30N 60°24' E 005°19'0 0.0
2018-Jun-20 12:00N 60°24' E 005°19'0 0.0
2018-Jun-20 11:29N 60°24' E 005°19'0 0.0
2018-Jun-20 11:00N 60°24' E 005°19'0 0.0
2018-Jun-20 10:30N 60°24' E 005°19'0 0.0
2018-Jun-20 10:00N 60°24' E 005°19'0 0.0
2018-Jun-20 09:30N 60°24' E 005°19'0 0.0
2018-Jun-20 09:00N 60°24' E 005°19'0 0.0
2018-Jun-20 08:30N 60°24' E 005°19'0 0.0
2018-Jun-20 08:00N 60°24' E 005°19'0 0.0
2018-Jun-20 07:30N 60°24' E 005°19'0 0.0
2018-Jun-20 07:00N 60°24' E 005°19'0 0.0
2018-Jun-20 06:30N 60°24' E 005°19'0 0.0
2018-Jun-20 06:00N 60°24' E 005°19'0 0.0
2018-Jun-20 05:30N 60°24' E 005°19'0 0.0
2018-Jun-20 04:59N 60°24' E 005°19'0 0.0
2018-Jun-20 04:30N 60°24' E 005°19'0 0.0
2018-Jun-20 04:00N 60°24' E 005°19'0 0.0
2018-Jun-20 03:30N 60°24' E 005°19'0 0.0
2018-Jun-20 03:00N 60°24' E 005°19'0 0.0
2018-Jun-20 02:29N 60°24' E 005°19'0 0.0
2018-Jun-20 02:01N 60°24' E 005°19'0 0.0
2018-Jun-20 01:30N 60°24' E 005°19'0 0.0
2018-Jun-20 01:00N 60°24' E 005°19'0 0.0
2018-Jun-20 00:30N 60°24' E 005°19'0 0.0
2018-Jun-20 00:00N 60°24' E 005°19'0 0.0
2018-Jun-19 23:30N 60°24' E 005°19'0 0.0
2018-Jun-19 23:00N 60°24' E 005°19'0 0.0
2018-Jun-19 22:30N 60°24' E 005°19'0 0.0
2018-Jun-19 22:00N 60°24' E 005°19'0 0.0
2018-Jun-19 21:30N 60°24' E 005°19'0 0.0
2018-Jun-19 21:00N 60°24' E 005°19'0 0.0
2018-Jun-19 20:30N 60°24' E 005°19'0 0.0
2018-Jun-19 20:00N 60°24' E 005°19'0 0.0
2018-Jun-19 19:30N 60°24' E 005°19'0 0.0
2018-Jun-19 19:00N 60°24' E 005°19'1 1.1
2018-Jun-19 18:30N 60°24' E 005°18'2 4.5
2018-Jun-19 18:00N 60°26' E 005°15'2 4.6
2018-Jun-19 17:30N 60°28' E 005°15'2 4.2
2018-Jun-19 17:00N 60°26' E 005°16'2 3.9
2018-Jun-19 16:30N 60°24' E 005°18'1 1.5
2018-Jun-19 16:00N 60°24' E 005°19'0 0.0
2018-Jun-19 15:30N 60°24' E 005°19'0 0.0
2018-Jun-19 14:58N 60°24' E 005°19'0 0.0
2018-Jun-19 14:28N 60°24' E 005°19'0 0.0
2018-Jun-19 13:59N 60°24' E 005°19'0 0.0
2018-Jun-19 13:29N 60°24' E 005°19'0 0.0
2018-Jun-19 12:59N 60°24' E 005°19'0 0.0
2018-Jun-19 12:30N 60°24' E 005°19'0 0.0
2018-Jun-19 11:57N 60°24' E 005°19'0 0.0
2018-Jun-19 11:30N 60°24' E 005°19'0 0.0
2018-Jun-19 11:01N 60°24' E 005°19'0 0.0
2018-Jun-19 10:28N 60°24' E 005°19'0 0.0
2018-Jun-19 09:58N 60°24' E 005°19'0 0.0
2018-Jun-19 09:29N 60°24' E 005°19'0 0.0
2018-Jun-19 08:59N 60°24' E 005°19'0 0.0
2018-Jun-19 08:29N 60°24' E 005°19'0 0.0
2018-Jun-19 08:00N 60°24' E 005°19'0 0.0
2018-Jun-19 07:30N 60°24' E 005°19'0 0.0
2018-Jun-19 07:00N 60°24' E 005°19'0 0.0
2018-Jun-19 06:31N 60°24' E 005°19'0 0.0
2018-Jun-19 05:58N 60°24' E 005°19'0 0.0
2018-Jun-19 05:28N 60°24' E 005°19'0 0.0
2018-Jun-19 04:59N 60°24' E 005°19'0 0.0
2018-Jun-19 04:29N 60°24' E 005°19'0 0.0
2018-Jun-19 03:59N 60°24' E 005°19'0 0.0
2018-Jun-19 03:30N 60°24' E 005°19'0 0.0
2018-Jun-19 03:00N 60°24' E 005°19'0 0.0
2018-Jun-19 02:30N 60°24' E 005°19'0 0.0
2018-Jun-19 02:01N 60°24' E 005°19'0 0.0
2018-Jun-19 01:28N 60°24' E 005°19'0 0.0
2018-Jun-19 00:58N 60°24' E 005°19'0 0.0
2018-Jun-19 00:29N 60°24' E 005°19'0 0.0
2018-Jun-18 23:59N 60°24' E 005°19'0 0.0
2018-Jun-18 23:29N 60°24' E 005°19'0 0.0
2018-Jun-18 23:00N 60°24' E 005°19'0 0.0
2018-Jun-18 22:30N 60°24' E 005°19'0 0.0
2018-Jun-18 22:00N 60°24' E 005°19'0 0.0
2018-Jun-18 21:31N 60°24' E 005°19'0 0.0
2018-Jun-18 20:58N 60°24' E 005°19'0 0.0
2018-Jun-18 20:28N 60°24' E 005°19'0 0.0
2018-Jun-18 19:59N 60°24' E 005°19'0 0.0
2018-Jun-18 19:29N 60°24' E 005°19'0 0.0
2018-Jun-18 18:59N 60°24' E 005°19'0 0.0
2018-Jun-18 18:30N 60°24' E 005°19'0 0.0
2018-Jun-18 18:00N 60°24' E 005°19'0 0.0
2018-Jun-18 17:30N 60°24' E 005°19'0 0.0
2018-Jun-18 16:58N 60°24' E 005°19'0 0.0
2018-Jun-18 16:28N 60°24' E 005°19'0 0.0
2018-Jun-18 15:58N 60°24' E 005°19'0 0.0
2018-Jun-18 15:29N 60°24' E 005°19'0 0.0
2018-Jun-18 14:59N 60°24' E 005°19'0 0.0
2018-Jun-18 14:29N 60°24' E 005°19'0 0.0
2018-Jun-18 14:00N 60°24' E 005°19'0 0.0
2018-Jun-18 13:30N 60°24' E 005°19'0 0.0
2018-Jun-18 13:00N 60°24' E 005°19'0 0.0
2018-Jun-18 12:28N 60°24' E 005°19'0 0.0
2018-Jun-18 11:58N 60°24' E 005°19'0 0.0
2018-Jun-18 11:25N 60°24' E 005°19'0 0.0
2018-Jun-18 10:59N 60°24' E 005°19'0 0.0
2018-Jun-18 10:29N 60°24' E 005°19'0 0.0
2018-Jun-18 09:59N 60°24' E 005°19'0 0.0
2018-Jun-18 09:30N 60°24' E 005°19'0 0.0
2018-Jun-18 09:00N 60°24' E 005°19'0 0.0
2018-Jun-18 08:30N 60°24' E 005°19'0 0.0
2018-Jun-18 07:58N 60°24' E 005°19'0 0.0
2018-Jun-18 07:28N 60°24' E 005°19'0 0.0
2018-Jun-18 06:58N 60°24' E 005°19'0 0.0
2018-Jun-18 06:29N 60°24' E 005°19'0 0.0
2018-Jun-18 05:59N 60°24' E 005°19'0 0.0
2018-Jun-18 05:29N 60°24' E 005°19'0 0.0
2018-Jun-18 05:00N 60°24' E 005°19'0 0.0
2018-Jun-18 04:30N 60°24' E 005°19'0 0.0
2018-Jun-18 04:00N 60°24' E 005°19'0 0.0
2018-Jun-18 03:28N 60°24' E 005°19'0 0.0
2018-Jun-18 02:58N 60°24' E 005°19'0 0.0
2018-Jun-18 02:28N 60°24' E 005°19'0 0.0
2018-Jun-18 01:59N 60°24' E 005°19'0 0.0
2018-Jun-18 01:29N 60°24' E 005°19'0 0.0
2018-Jun-18 00:59N 60°24' E 005°19'0 0.0
2018-Jun-18 00:30N 60°24' E 005°19'0 0.0
2018-Jun-18 00:00N 60°24' E 005°19'0 0.0
2018-Jun-17 23:30N 60°24' E 005°19'0 0.0
2018-Jun-17 22:58N 60°24' E 005°19'0 0.0
2018-Jun-17 22:30N 60°24' E 005°19'2 3.7
2018-Jun-17 22:00N 60°24' E 005°15'4 8.9
2018-Jun-17 21:31N 60°20' E 005°11'510.3
2018-Jun-17 21:00N 60°15' E 005°09'510.5
2018-Jun-17 20:30N 60°11' E 005°15'5 9.9
2018-Jun-17 20:00N 60°07' E 005°23'4 8.6
2018-Jun-17 19:30N 60°10' E 005°29'1 2.0
2018-Jun-17 19:00N 60°11' E 005°29'1 2.6
2018-Jun-17 18:30N 60°10' E 005°31'3 6.5
2018-Jun-17 18:00N 60°13' E 005°35'1 1.6
2018-Jun-17 17:30N 60°12' E 005°34'3 5.2
2018-Jun-17 17:00N 60°11' E 005°30'0 0.3
2018-Jun-17 16:30N 60°11' E 005°29'0 0.0
2018-Jun-17 16:00N 60°11' E 005°29'0 0.0
2018-Jun-17 15:29N 60°11' E 005°29'0 0.0
2018-Jun-17 15:00N 60°11' E 005°29'0 0.0
2018-Jun-17 14:30N 60°11' E 005°29'2 2.9
2018-Jun-17 14:00N 60°10' E 005°29'4 7.6
2018-Jun-17 13:29N 60°07' E 005°23'4 8.8
2018-Jun-17 13:00N 60°10' E 005°16'4 8.8
2018-Jun-17 12:30N 60°13' E 005°10'4 7.6
2018-Jun-17 12:00N 60°17' E 005°11'4 7.8
2018-Jun-17 11:30N 60°21' E 005°10'4 7.1
2018-Jun-17 11:00N 60°24' E 005°13'3 5.2
2018-Jun-17 10:28N 60°24' E 005°19'0 0.0
2018-Jun-17 09:58N 60°24' E 005°19'0 0.0
2018-Jun-17 09:28N 60°24' E 005°19'0 0.0
2018-Jun-17 08:59N 60°24' E 005°19'0 0.0
2018-Jun-17 08:29N 60°24' E 005°19'0 0.0
2018-Jun-17 07:59N 60°24' E 005°19'0 0.0
2018-Jun-17 07:30N 60°24' E 005°19'0 0.0
2018-Jun-17 07:00N 60°24' E 005°19'0 0.0
2018-Jun-17 06:30N 60°24' E 005°19'0 0.0
2018-Jun-17 05:58N 60°24' E 005°19'0 0.0
2018-Jun-17 05:28N 60°24' E 005°19'0 0.0
2018-Jun-17 04:58N 60°24' E 005°19'0 0.0
2018-Jun-17 04:29N 60°24' E 005°19'0 0.0
2018-Jun-17 03:59N 60°24' E 005°19'0 0.0
2018-Jun-17 03:29N 60°24' E 005°19'0 0.0
2018-Jun-17 02:57N 60°24' E 005°19'0 0.0
2018-Jun-17 02:30N 60°24' E 005°19'0 0.0
2018-Jun-17 02:00N 60°24' E 005°19'0 0.0
2018-Jun-17 01:28N 60°24' E 005°19'0 0.0
2018-Jun-17 00:58N 60°24' E 005°19'0 0.0
2018-Jun-17 00:28N 60°24' E 005°19'0 0.0
2018-Jun-16 23:59N 60°24' E 005°19'0 0.0
2018-Jun-16 23:29N 60°24' E 005°19'0 0.0
2018-Jun-16 22:59N 60°24' E 005°19'0 0.0
2018-Jun-16 22:30N 60°24' E 005°19'0 0.0
2018-Jun-16 22:00N 60°24' E 005°19'0 0.0
2018-Jun-16 21:30N 60°24' E 005°19'0 0.0
2018-Jun-16 20:58N 60°24' E 005°19'0 0.0
2018-Jun-16 20:28N 60°24' E 005°19'0 0.0
2018-Jun-16 20:00N 60°24' E 005°19'1 1.4
2018-Jun-16 19:30N 60°24' E 005°18'2 3.8
2018-Jun-16 19:00N 60°24' E 005°14'2 4.6
2018-Jun-16 18:30N 60°23' E 005°09'2 4.5
2018-Jun-16 18:00N 60°24' E 005°06'1 2.3
2018-Jun-16 17:29N 60°26' E 005°05'2 4.1
2018-Jun-16 17:00N 60°25' E 005°09'2 4.2
2018-Jun-16 16:30N 60°24' E 005°13'2 4.8
2018-Jun-16 16:00N 60°24' E 005°17'1 2.1
2018-Jun-16 15:30N 60°24' E 005°19'0 0.0
2018-Jun-16 15:00N 60°24' E 005°19'0 0.0
2018-Jun-16 14:30N 60°24' E 005°19'0 0.0
2018-Jun-16 14:00N 60°24' E 005°19'0 0.0
2018-Jun-16 13:30N 60°24' E 005°19'0 0.0
2018-Jun-16 13:00N 60°24' E 005°19'0 0.0
2018-Jun-16 12:30N 60°24' E 005°19'0 0.0
2018-Jun-16 12:00N 60°24' E 005°19'0 0.0
2018-Jun-16 11:30N 60°24' E 005°19'0 0.0
2018-Jun-16 11:00N 60°24' E 005°19'0 0.0
2018-Jun-16 10:30N 60°24' E 005°19'0 0.0
2018-Jun-16 10:00N 60°24' E 005°19'0 0.0
2018-Jun-16 09:30N 60°24' E 005°19'0 0.0
2018-Jun-16 09:00N 60°24' E 005°19'0 0.0
2018-Jun-16 08:30N 60°24' E 005°19'0 0.0
2018-Jun-16 08:00N 60°24' E 005°19'0 0.0
2018-Jun-16 07:30N 60°24' E 005°19'0 0.0
2018-Jun-16 07:00N 60°24' E 005°19'0 0.0
2018-Jun-16 06:30N 60°24' E 005°19'0 0.0
2018-Jun-16 06:00N 60°24' E 005°19'0 0.0
2018-Jun-16 05:30N 60°24' E 005°19'0 0.0
2018-Jun-16 05:00N 60°24' E 005°19'0 0.0
2018-Jun-16 04:30N 60°24' E 005°19'0 0.0
2018-Jun-16 04:00N 60°24' E 005°19'0 0.0
2018-Jun-16 03:30N 60°24' E 005°19'0 0.0
2018-Jun-16 03:00N 60°24' E 005°19'0 0.0
2018-Jun-16 02:30N 60°24' E 005°19'0 0.0
2018-Jun-16 02:00N 60°24' E 005°19'0 0.0
2018-Jun-16 01:30N 60°24' E 005°19'0 0.0
2018-Jun-16 01:00N 60°24' E 005°19'0 0.0
2018-Jun-16 00:30N 60°24' E 005°19'0 0.0
2018-Jun-16 00:00N 60°24' E 005°19'0 0.0
2018-Jun-15 23:30N 60°24' E 005°19'0 0.0
2018-Jun-15 23:00N 60°24' E 005°19'0 0.0
2018-Jun-15 22:30N 60°24' E 005°19'0 0.0
2018-Jun-15 21:59N 60°24' E 005°19'0 0.0
2018-Jun-15 21:30N 60°24' E 005°19'0 0.0
2018-Jun-15 21:00N 60°24' E 005°19'0 0.0
2018-Jun-15 20:29N 60°24' E 005°19'0 0.0
2018-Jun-15 19:59N 60°24' E 005°19'0 1.0
2018-Jun-15 19:30N 60°24' E 005°18'2 3.2
2018-Jun-15 19:00N 60°24' E 005°15'2 3.7
2018-Jun-15 18:30N 60°23' E 005°12'2 3.9
2018-Jun-15 18:00N 60°24' E 005°08'3 5.1
2018-Jun-15 17:29N 60°25' E 005°03'2 5.1
2018-Jun-15 17:00N 60°25' E 005°08'3 5.5
2018-Jun-15 16:30N 60°24' E 005°12'3 5.4
2018-Jun-15 16:00N 60°24' E 005°18'1 1.7
2018-Jun-15 15:30N 60°24' E 005°19'0 0.0
2018-Jun-15 14:58N 60°24' E 005°19'0 0.0
2018-Jun-15 14:28N 60°24' E 005°19'0 0.0
2018-Jun-15 13:58N 60°24' E 005°19'0 0.0
2018-Jun-15 13:29N 60°24' E 005°19'0 0.0
2018-Jun-15 12:59N 60°24' E 005°19'0 0.0
2018-Jun-15 12:29N 60°24' E 005°19'0 0.0
2018-Jun-15 12:00N 60°24' E 005°19'0 0.0
2018-Jun-15 11:30N 60°24' E 005°19'0 0.0
2018-Jun-15 11:00N 60°24' E 005°19'0 0.0
2018-Jun-15 10:28N 60°24' E 005°19'0 0.0
2018-Jun-15 09:58N 60°24' E 005°19'0 0.0
2018-Jun-15 09:28N 60°24' E 005°19'0 0.0
2018-Jun-15 08:59N 60°24' E 005°19'0 0.0
2018-Jun-15 08:29N 60°24' E 005°19'0 0.0
2018-Jun-15 07:59N 60°24' E 005°19'0 0.0
2018-Jun-15 07:30N 60°24' E 005°19'0 0.0
2018-Jun-15 07:00N 60°24' E 005°19'0 0.0
2018-Jun-15 06:30N 60°24' E 005°19'0 0.0
2018-Jun-15 05:58N 60°24' E 005°19'0 0.0
2018-Jun-15 05:28N 60°24' E 005°19'0 0.0
2018-Jun-15 04:58N 60°24' E 005°19'0 0.0
2018-Jun-15 04:29N 60°24' E 005°19'0 0.0
2018-Jun-15 03:59N 60°24' E 005°19'0 0.0
2018-Jun-15 03:29N 60°24' E 005°19'0 0.0
2018-Jun-15 03:00N 60°24' E 005°19'0 0.0
2018-Jun-15 02:30N 60°24' E 005°19'0 0.0
2018-Jun-15 02:00N 60°24' E 005°19'0 0.0
2018-Jun-15 01:28N 60°24' E 005°19'0 0.0
2018-Jun-15 00:58N 60°24' E 005°19'0 0.0
2018-Jun-15 00:28N 60°24' E 005°19'0 0.0
2018-Jun-14 23:59N 60°24' E 005°19'0 0.0
2018-Jun-14 23:29N 60°24' E 005°19'0 0.0
2018-Jun-14 22:59N 60°24' E 005°19'0 0.0
2018-Jun-14 22:30N 60°24' E 005°19'0 0.0
2018-Jun-14 22:00N 60°24' E 005°19'0 0.0
2018-Jun-14 21:30N 60°24' E 005°19'0 0.0
2018-Jun-14 20:58N 60°24' E 005°19'0 0.0
2018-Jun-14 20:28N 60°24' E 005°19'0 0.0
2018-Jun-14 19:59N 60°24' E 005°19'0 0.0
2018-Jun-14 19:29N 60°24' E 005°19'0 0.0
2018-Jun-14 18:59N 60°24' E 005°19'0 0.0
2018-Jun-14 18:30N 60°24' E 005°19'0 0.0
2018-Jun-14 18:00N 60°24' E 005°19'0 0.0
2018-Jun-14 17:30N 60°24' E 005°19'0 0.0
2018-Jun-14 17:01N 60°24' E 005°19'0 0.0
2018-Jun-14 16:28N 60°24' E 005°19'0 0.0
2018-Jun-14 15:58N 60°24' E 005°19'0 0.0
2018-Jun-14 15:29N 60°24' E 005°19'0 0.0
2018-Jun-14 14:59N 60°24' E 005°19'0 0.0
2018-Jun-14 14:29N 60°24' E 005°19'0 0.0
2018-Jun-14 13:59N 60°24' E 005°19'0 0.0
2018-Jun-14 13:30N 60°24' E 005°19'0 0.0
2018-Jun-14 13:00N 60°24' E 005°19'0 0.0
2018-Jun-14 12:30N 60°24' E 005°19'0 0.0
2018-Jun-14 11:58N 60°24' E 005°19'0 0.0
2018-Jun-14 11:28N 60°24' E 005°19'0 0.0
2018-Jun-14 10:59N 60°24' E 005°19'0 0.0
2018-Jun-14 10:29N 60°24' E 005°19'0 0.0
2018-Jun-14 09:56N 60°24' E 005°19'0 0.0
2018-Jun-14 09:30N 60°24' E 005°19'0 0.0
2018-Jun-14 09:00N 60°24' E 005°19'0 0.0
2018-Jun-14 08:30N 60°24' E 005°19'0 0.0
2018-Jun-14 08:01N 60°24' E 005°19'0 0.0
2018-Jun-14 07:28N 60°24' E 005°19'0 0.0
2018-Jun-14 06:58N 60°24' E 005°19'0 0.0
2018-Jun-14 06:29N 60°24' E 005°19'0 0.0
2018-Jun-14 05:59N 60°24' E 005°19'0 0.0
2018-Jun-14 05:29N 60°24' E 005°19'0 0.0
2018-Jun-14 05:00N 60°24' E 005°19'0 0.0
2018-Jun-14 04:30N 60°24' E 005°19'0 0.0
2018-Jun-14 04:00N 60°24' E 005°19'0 0.0
2018-Jun-14 03:31N 60°24' E 005°19'0 0.0
2018-Jun-14 02:58N 60°24' E 005°19'0 0.0
2018-Jun-14 02:28N 60°24' E 005°19'0 0.0
2018-Jun-14 01:59N 60°24' E 005°19'0 0.0
2018-Jun-14 01:29N 60°24' E 005°19'0 0.0
2018-Jun-14 00:59N 60°24' E 005°19'0 0.0
2018-Jun-14 00:27N 60°24' E 005°19'0 0.0
2018-Jun-14 00:00N 60°24' E 005°19'0 0.0
2018-Jun-13 23:30N 60°24' E 005°19'0 0.0
2018-Jun-13 23:01N 60°24' E 005°19'0 0.0
2018-Jun-13 22:28N 60°24' E 005°19'0 0.0
2018-Jun-13 21:58N 60°24' E 005°19'0 0.0
2018-Jun-13 21:29N 60°24' E 005°19'0 0.0
2018-Jun-13 20:59N 60°24' E 005°19'0 0.0
2018-Jun-13 20:29N 60°24' E 005°19'0 0.0
2018-Jun-13 19:59N 60°24' E 005°19'1 1.5
2018-Jun-13 19:30N 60°24' E 005°18'2 4.2
2018-Jun-13 19:01N 60°24' E 005°14'2 4.7
2018-Jun-13 18:31N 60°24' E 005°09'2 4.9
2018-Jun-13 18:00N 60°25' E 005°05'2 3.3
2018-Jun-13 17:30N 60°26' E 005°07'2 4.8
2018-Jun-13 17:00N 60°24' E 005°09'1 3.0
2018-Jun-13 16:30N 60°24' E 005°12'3 5.5
2018-Jun-13 16:00N 60°24' E 005°18'1 1.2
2018-Jun-13 15:28N 60°24' E 005°19'0 0.0
2018-Jun-13 14:58N 60°24' E 005°19'0 0.0
2018-Jun-13 14:29N 60°24' E 005°19'0 0.0
2018-Jun-13 13:59N 60°24' E 005°19'0 0.0
2018-Jun-13 13:29N 60°24' E 005°19'0 0.0
2018-Jun-13 13:00N 60°24' E 005°19'0 0.0
2018-Jun-13 12:30N 60°24' E 005°19'0 0.0
2018-Jun-13 12:00N 60°24' E 005°19'0 0.0
2018-Jun-13 11:28N 60°24' E 005°19'0 0.0
2018-Jun-13 10:58N 60°24' E 005°19'0 0.0
2018-Jun-13 10:26N 60°24' E 005°19'0 0.0
2018-Jun-13 09:59N 60°24' E 005°19'0 0.0
2018-Jun-13 09:29N 60°24' E 005°19'0 0.0
2018-Jun-13 09:00N 60°24' E 005°19'0 0.0
2018-Jun-13 08:30N 60°24' E 005°19'0 0.0
2018-Jun-13 08:00N 60°24' E 005°19'0 0.0
2018-Jun-13 07:30N 60°24' E 005°19'0 0.0
2018-Jun-13 06:58N 60°24' E 005°19'0 0.0
2018-Jun-13 06:28N 60°24' E 005°19'0 0.0
2018-Jun-13 05:59N 60°24' E 005°19'0 0.0
2018-Jun-13 05:29N 60°24' E 005°19'0 0.0
2018-Jun-13 04:59N 60°24' E 005°19'0 0.0
2018-Jun-13 04:30N 60°24' E 005°19'0 0.0
2018-Jun-13 04:00N 60°24' E 005°19'0 0.0
2018-Jun-13 03:30N 60°24' E 005°19'0 0.0
2018-Jun-13 02:58N 60°24' E 005°19'0 0.0
2018-Jun-13 02:28N 60°24' E 005°19'0 0.0
2018-Jun-13 01:58N 60°24' E 005°19'0 0.0
2018-Jun-13 01:29N 60°24' E 005°19'0 0.0
2018-Jun-13 00:59N 60°24' E 005°19'0 0.0
2018-Jun-13 00:29N 60°24' E 005°19'0 0.0
2018-Jun-13 00:00N 60°24' E 005°19'0 0.0
2018-Jun-12 23:30N 60°24' E 005°19'0 0.0
2018-Jun-12 23:00N 60°24' E 005°19'0 0.0
2018-Jun-12 22:28N 60°24' E 005°19'0 0.0
2018-Jun-12 21:58N 60°24' E 005°19'0 0.0
2018-Jun-12 21:28N 60°24' E 005°19'0 0.0
2018-Jun-12 20:59N 60°24' E 005°19'0 0.0
2018-Jun-12 20:29N 60°24' E 005°19'0 0.0
2018-Jun-12 20:00N 60°24' E 005°19'1 1.7
2018-Jun-12 19:30N 60°24' E 005°17'2 4.0
2018-Jun-12 19:00N 60°24' E 005°14'1 2.7
2018-Jun-12 18:30N 60°23' E 005°11'2 3.8
2018-Jun-12 18:00N 60°24' E 005°08'2 4.9
2018-Jun-12 17:30N 60°25' E 005°04'2 5.0
2018-Jun-12 17:00N 60°25' E 005°08'2 4.4
2018-Jun-12 16:30N 60°24' E 005°12'3 5.4
2018-Jun-12 16:00N 60°24' E 005°17'1 1.9
2018-Jun-12 15:30N 60°24' E 005°19'0 0.0
2018-Jun-12 14:58N 60°24' E 005°19'0 0.0
2018-Jun-12 14:28N 60°24' E 005°19'0 0.0
2018-Jun-12 13:58N 60°24' E 005°19'0 0.0
2018-Jun-12 13:29N 60°24' E 005°19'0 0.0
2018-Jun-12 12:59N 60°24' E 005°19'0 0.0
2018-Jun-12 12:29N 60°24' E 005°19'0 0.0
2018-Jun-12 12:00N 60°24' E 005°19'0 0.0
2018-Jun-12 11:30N 60°24' E 005°19'0 0.0
2018-Jun-12 11:00N 60°24' E 005°19'0 0.0
2018-Jun-12 10:28N 60°24' E 005°19'0 0.0
2018-Jun-12 09:58N 60°24' E 005°19'0 0.0
2018-Jun-12 09:28N 60°24' E 005°19'0 0.0
2018-Jun-12 08:59N 60°24' E 005°19'0 0.0
2018-Jun-12 08:29N 60°24' E 005°19'0 0.0
2018-Jun-12 07:59N 60°24' E 005°19'0 0.0
2018-Jun-12 07:30N 60°24' E 005°19'0 0.0
2018-Jun-12 07:00N 60°24' E 005°19'0 0.0
2018-Jun-12 06:30N 60°24' E 005°19'0 0.0
2018-Jun-12 05:55N 60°24' E 005°19'0 0.0
2018-Jun-12 05:28N 60°24' E 005°19'0 0.0
2018-Jun-12 04:58N 60°24' E 005°19'0 0.0
2018-Jun-12 04:29N 60°24' E 005°19'0 0.0
2018-Jun-12 03:59N 60°24' E 005°19'0 0.0
2018-Jun-12 03:29N 60°24' E 005°19'0 0.0
2018-Jun-12 03:00N 60°24' E 005°19'0 0.0
2018-Jun-12 02:30N 60°24' E 005°19'0 0.0
2018-Jun-12 02:00N 60°24' E 005°19'0 0.0
2018-Jun-12 01:28N 60°24' E 005°19'0 0.0
2018-Jun-12 00:58N 60°24' E 005°19'0 0.0
2018-Jun-12 00:28N 60°24' E 005°19'0 0.0
2018-Jun-11 23:59N 60°24' E 005°19'0 0.0
2018-Jun-11 23:29N 60°24' E 005°19'0 0.0
2018-Jun-11 22:59N 60°24' E 005°19'0 0.0
2018-Jun-11 22:30N 60°24' E 005°19'0 0.0
2018-Jun-11 22:00N 60°24' E 005°19'0 0.0
2018-Jun-11 21:30N 60°24' E 005°19'0 0.0
2018-Jun-11 20:58N 60°24' E 005°19'0 0.0
2018-Jun-11 20:28N 60°24' E 005°19'0 0.0
2018-Jun-11 19:58N 60°24' E 005°19'0 0.0
2018-Jun-11 19:29N 60°24' E 005°19'0 0.0
2018-Jun-11 18:59N 60°24' E 005°19'0 0.0
2018-Jun-11 18:29N 60°24' E 005°19'0 0.0
2018-Jun-11 18:00N 60°24' E 005°19'0 0.0
2018-Jun-11 17:30N 60°24' E 005°19'0 0.0
2018-Jun-11 17:00N 60°24' E 005°19'0 0.0
2018-Jun-11 16:28N 60°24' E 005°19'0 0.0
2018-Jun-11 15:58N 60°24' E 005°19'0 0.0
2018-Jun-11 15:28N 60°24' E 005°19'0 0.0
2018-Jun-11 14:59N 60°24' E 005°19'0 0.0
2018-Jun-11 14:29N 60°24' E 005°19'0 0.0
2018-Jun-11 13:59N 60°24' E 005°19'0 0.0
2018-Jun-11 13:30N 60°24' E 005°19'0 0.0
2018-Jun-11 13:00N 60°24' E 005°19'0 0.0
2018-Jun-11 12:30N 60°24' E 005°19'0 0.0
2018-Jun-11 11:58N 60°24' E 005°19'0 0.0
2018-Jun-11 11:28N 60°24' E 005°19'0 0.0
2018-Jun-11 10:58N 60°24' E 005°19'0 0.0
2018-Jun-11 10:29N 60°24' E 005°19'0 0.0
2018-Jun-11 09:59N 60°24' E 005°19'0 0.0
2018-Jun-11 09:29N 60°24' E 005°19'0 0.0
2018-Jun-11 09:00N 60°24' E 005°19'0 0.0
2018-Jun-11 08:30N 60°24' E 005°19'0 0.0
2018-Jun-11 08:00N 60°24' E 005°19'0 0.0
2018-Jun-11 07:28N 60°24' E 005°19'0 0.0
2018-Jun-11 06:58N 60°24' E 005°19'0 0.0
2018-Jun-11 06:28N 60°24' E 005°19'0 0.0
2018-Jun-11 05:59N 60°24' E 005°19'0 0.0
2018-Jun-11 05:29N 60°24' E 005°19'0 0.0
2018-Jun-11 04:59N 60°24' E 005°19'0 0.0
2018-Jun-11 04:30N 60°24' E 005°19'0 0.0
2018-Jun-11 04:00N 60°24' E 005°19'0 0.0
2018-Jun-11 03:30N 60°24' E 005°19'0 0.0
2018-Jun-11 02:58N 60°24' E 005°19'0 0.0
2018-Jun-11 02:28N 60°24' E 005°19'0 0.0
2018-Jun-11 01:58N 60°24' E 005°19'0 0.0
2018-Jun-11 01:29N 60°24' E 005°19'0 0.0
2018-Jun-11 00:59N 60°24' E 005°19'0 0.0
2018-Jun-11 00:29N 60°24' E 005°19'0 0.0
2018-Jun-11 00:00N 60°24' E 005°19'0 0.0
2018-Jun-10 23:30N 60°24' E 005°19'0 0.0
2018-Jun-10 23:00N 60°24' E 005°19'0 0.0
2018-Jun-10 22:28N 60°24' E 005°19'0 0.0
2018-Jun-10 21:58N 60°24' E 005°19'0 0.0
2018-Jun-10 21:28N 60°24' E 005°19'0 0.0
2018-Jun-10 20:59N 60°24' E 005°19'0 0.0
2018-Jun-10 20:29N 60°24' E 005°19'  

Dump ship's entire track history